createdAt,value
2019-04-10T00:00:16.818Z,92.28
2019-04-10T00:01:17.278Z,92.00
2019-04-10T00:02:17.493Z,92.47
2019-04-10T00:03:25.899Z,92.38
2019-04-10T00:04:16.319Z,92.19
2019-04-10T00:05:16.331Z,92.47
2019-04-10T00:06:18.071Z,92.66
2019-04-10T00:07:18.392Z,92.38
2019-04-10T00:08:16.370Z,92.66
2019-04-10T00:09:16.922Z,92.66
2019-04-10T00:10:16.394Z,92.47
2019-04-10T00:11:16.589Z,92.57
2019-04-10T00:12:16.422Z,92.28
2019-04-10T00:13:16.439Z,92.76
2019-04-10T00:14:16.477Z,92.57
2019-04-10T00:15:18.206Z,92.85
2019-04-10T00:16:16.475Z,92.76
2019-04-10T00:17:16.575Z,93.13
2019-04-10T00:18:16.500Z,92.66
2019-04-10T00:19:16.515Z,92.85
2019-04-10T00:20:16.530Z,92.66
2019-04-10T00:21:17.456Z,92.66
2019-04-10T00:22:16.554Z,93.42
2019-04-10T00:23:17.342Z,92.85
2019-04-10T00:24:16.706Z,93.32
2019-04-10T00:25:16.826Z,93.04
2019-04-10T00:26:17.336Z,92.66
2019-04-10T00:27:16.716Z,92.76
2019-04-10T00:28:17.060Z,93.42
2019-04-10T00:29:16.660Z,93.23
2019-04-10T00:30:16.738Z,93.32
2019-04-10T00:31:16.923Z,93.61
2019-04-10T00:32:16.740Z,93.51
2019-04-10T00:33:16.735Z,93.80
2019-04-10T00:34:17.717Z,93.80
2019-04-10T00:35:16.781Z,93.46
2019-04-10T00:36:16.814Z,93.37
2019-04-10T00:37:23.844Z,94.04
2019-04-10T00:38:17.631Z,94.51
2019-04-10T00:39:16.792Z,94.70
2019-04-10T00:40:17.308Z,94.04
2019-04-10T00:41:16.806Z,94.13
2019-04-10T00:42:16.884Z,94.04
2019-04-10T00:43:17.054Z,94.13
2019-04-10T00:44:16.845Z,93.84
2019-04-10T00:45:17.476Z,93.94
2019-04-10T00:46:17.827Z,94.51
2019-04-10T00:47:17.048Z,94.42
2019-04-10T00:48:17.495Z,94.60
2019-04-10T00:49:17.584Z,94.23
2019-04-10T00:50:18.060Z,94.60
2019-04-10T00:51:17.236Z,94.04
2019-04-10T00:52:16.948Z,94.70
2019-04-10T00:53:17.059Z,94.42
2019-04-10T00:54:18.096Z,94.60
2019-04-10T00:55:16.991Z,94.32
2019-04-10T00:56:17.000Z,94.23
2019-04-10T00:57:17.056Z,94.23
2019-04-10T00:58:17.024Z,94.70
2019-04-10T00:59:17.743Z,94.70
2019-04-10T01:00:17.050Z,95.17
2019-04-10T01:01:17.066Z,94.98
2019-04-10T01:02:17.077Z,95.07
2019-04-10T01:03:17.631Z,95.07
2019-04-10T01:04:18.126Z,95.07
2019-04-10T01:05:17.363Z,95.64
2019-04-10T01:06:17.129Z,95.26
2019-04-10T01:07:17.142Z,95.45
2019-04-10T01:08:18.130Z,95.17
2019-04-10T01:09:17.383Z,96.02
2019-04-10T01:10:17.835Z,95.74
2019-04-10T01:11:17.198Z,95.55
2019-04-10T01:12:17.207Z,95.93
2019-04-10T01:13:17.220Z,96.21
2019-04-10T01:14:17.888Z,96.02
2019-04-10T01:15:18.304Z,96.12
2019-04-10T01:16:17.937Z,96.12
2019-04-10T01:17:17.270Z,96.12
2019-04-10T01:18:17.284Z,96.12
2019-04-10T01:19:17.529Z,96.59
2019-04-10T01:20:17.621Z,96.59
2019-04-10T01:21:18.006Z,96.59
2019-04-10T01:22:17.336Z,96.40
2019-04-10T01:23:17.354Z,96.31
2019-04-10T01:24:17.500Z,96.31
2019-04-10T01:25:18.580Z,96.31
2019-04-10T01:26:17.386Z,96.12
2019-04-10T01:27:18.006Z,96.21
2019-04-10T01:28:17.441Z,97.06
2019-04-10T01:29:17.593Z,96.78
2019-04-10T01:30:18.083Z,96.40
2019-04-10T01:31:17.450Z,96.69
2019-04-10T01:32:17.483Z,96.69
2019-04-10T01:33:18.573Z,97.16
2019-04-10T01:34:17.500Z,97.06
2019-04-10T01:35:18.172Z,96.73
2019-04-10T01:36:18.527Z,96.64
2019-04-10T01:37:18.479Z,96.88
2019-04-10T01:38:17.639Z,97.16
2019-04-10T01:39:17.953Z,96.59
2019-04-10T01:40:17.566Z,96.40
2019-04-10T01:41:17.578Z,96.69
2019-04-10T01:42:18.413Z,96.59
2019-04-10T01:43:19.884Z,96.45
2019-04-10T01:44:17.617Z,96.73
2019-04-10T01:45:17.627Z,97.11
2019-04-10T01:46:17.977Z,97.11
2019-04-10T01:47:17.663Z,96.92
2019-04-10T01:48:17.671Z,96.97
2019-04-10T01:49:17.750Z,97.39
2019-04-10T01:50:18.018Z,97.44
2019-04-10T01:51:17.709Z,97.63
2019-04-10T01:52:17.717Z,97.68
2019-04-10T01:53:17.728Z,97.87
2019-04-10T01:54:17.741Z,97.82
2019-04-10T01:55:25.286Z,97.73
2019-04-10T01:56:27.075Z,97.39
2019-04-10T01:57:17.779Z,97.58
2019-04-10T01:58:17.791Z,97.49
2019-04-10T01:59:18.004Z,97.68
2019-04-10T02:00:17.816Z,97.49
2019-04-10T02:01:18.561Z,97.77
2019-04-10T02:02:17.998Z,97.87
2019-04-10T02:03:18.089Z,97.58
2019-04-10T02:04:18.437Z,98.15
2019-04-10T02:05:18.608Z,97.96
2019-04-10T02:06:18.858Z,97.77
2019-04-10T02:07:18.064Z,97.77
2019-04-10T02:08:18.918Z,98.06
2019-04-10T02:09:17.930Z,98.25
2019-04-10T02:10:18.510Z,98.25
2019-04-10T02:11:17.954Z,98.06
2019-04-10T02:12:18.646Z,97.87
2019-04-10T02:13:19.107Z,98.44
2019-04-10T02:14:18.362Z,98.82
2019-04-10T02:15:18.007Z,98.72
2019-04-10T02:16:18.789Z,98.82
2019-04-10T02:17:18.031Z,98.72
2019-04-10T02:18:18.042Z,98.72
2019-04-10T02:19:18.427Z,98.72
2019-04-10T02:20:18.860Z,98.72
2019-04-10T02:21:18.079Z,98.63
2019-04-10T02:22:18.089Z,98.91
2019-04-10T02:23:19.167Z,98.53
2019-04-10T02:24:18.744Z,99.10
2019-04-10T02:25:18.127Z,99.10
2019-04-10T02:26:19.112Z,98.91
2019-04-10T02:27:18.305Z,99.19
2019-04-10T02:28:18.585Z,99.10
2019-04-10T02:29:18.177Z,99.48
2019-04-10T02:30:19.612Z,99.38
2019-04-10T02:31:19.117Z,99.29
2019-04-10T02:32:18.949Z,99.38
2019-04-10T02:33:18.430Z,99.29
2019-04-10T02:34:19.356Z,99.10
2019-04-10T02:35:20.295Z,99.19
2019-04-10T02:36:19.485Z,99.10
2019-04-10T02:37:19.216Z,99.19
2019-04-10T02:38:37.317Z,98.91
2019-04-10T02:39:25.456Z,99.29
2019-04-10T02:40:19.294Z,98.91
2019-04-10T02:41:19.291Z,99.29
2019-04-10T02:42:18.600Z,99.10
2019-04-10T02:43:18.874Z,98.91
2019-04-10T02:44:18.640Z,99.29
2019-04-10T02:45:19.020Z,99.19
2019-04-10T02:46:19.577Z,99.29
2019-04-10T02:47:19.209Z,99.48
2019-04-10T02:48:19.404Z,98.82
2019-04-10T02:49:18.518Z,99.19
2019-04-10T02:50:18.801Z,99.48
2019-04-10T02:51:19.929Z,99.29
2019-04-10T02:52:20.117Z,99.76
2019-04-10T02:53:19.562Z,99.38
2019-04-10T02:54:19.457Z,99.57
2019-04-10T02:55:18.752Z,99.01
2019-04-10T02:56:20.789Z,99.99
2019-04-10T02:57:19.504Z,99.76
2019-04-10T02:58:18.817Z,99.76
2019-04-10T02:59:18.763Z,99.57
2019-04-10T03:00:20.100Z,99.85
2019-04-10T03:01:19.831Z,99.85
2019-04-10T03:02:20.089Z,99.76
2019-04-10T03:03:19.929Z,99.57
2019-04-10T03:04:20.424Z,99.66
2019-04-10T03:05:20.055Z,99.95
2019-04-10T03:06:18.899Z,99.76
2019-04-10T03:07:19.810Z,99.99
2019-04-10T03:08:35.037Z,99.76
2019-04-10T03:09:31.845Z,99.95
2019-04-10T03:10:26.402Z,99.85
2019-04-10T03:11:20.075Z,99.48
2019-04-10T03:12:19.747Z,99.99
2019-04-10T03:13:19.819Z,99.95
2019-04-10T03:14:18.951Z,99.99
2019-04-10T03:15:19.543Z,99.76
2019-04-10T03:16:19.453Z,99.85
2019-04-10T03:17:19.705Z,99.95
2019-04-10T03:18:18.838Z,99.99
2019-04-10T03:19:19.185Z,99.85
2019-04-10T03:20:18.802Z,99.99
2019-04-10T03:21:18.816Z,99.99
2019-04-10T03:22:18.846Z,99.95
2019-04-10T03:23:18.838Z,99.99
2019-04-10T03:24:19.134Z,99.99
2019-04-10T03:25:19.437Z,99.99
2019-04-10T03:26:18.882Z,99.99
2019-04-10T03:27:19.214Z,99.99
2019-04-10T03:28:18.902Z,99.99
2019-04-10T03:29:19.854Z,99.99
2019-04-10T03:30:20.625Z,99.99
2019-04-10T03:31:20.116Z,99.76
2019-04-10T03:32:20.947Z,99.85
2019-04-10T03:33:22.742Z,99.76
2019-04-10T03:34:21.578Z,99.85
2019-04-10T03:35:18.990Z,99.48
2019-04-10T03:36:19.098Z,99.48
2019-04-10T03:37:20.212Z,99.66
2019-04-10T03:38:19.026Z,99.85
2019-04-10T03:39:19.039Z,99.66
2019-04-10T03:40:19.549Z,99.71
2019-04-10T03:41:19.771Z,99.99
2019-04-10T03:42:19.074Z,99.76
2019-04-10T03:43:19.453Z,99.81
2019-04-10T03:44:19.101Z,98.96
2019-04-10T03:45:20.120Z,99.90
2019-04-10T03:46:19.456Z,98.96
2019-04-10T03:47:19.609Z,99.24
2019-04-10T03:48:20.083Z,99.15
2019-04-10T03:49:19.919Z,99.52
2019-04-10T03:50:19.176Z,99.62
2019-04-10T03:51:19.188Z,99.62
2019-04-10T03:52:19.201Z,99.33
2019-04-10T03:53:20.217Z,99.15
2019-04-10T03:54:19.234Z,99.43
2019-04-10T03:55:19.243Z,99.24
2019-04-10T03:56:19.253Z,99.24
2019-04-10T03:57:19.262Z,99.33
2019-04-10T03:58:19.671Z,99.05
2019-04-10T03:59:20.112Z,99.15
2019-04-10T04:00:19.768Z,99.29
2019-04-10T04:01:19.322Z,99.48
2019-04-10T04:02:19.850Z,99.15
2019-04-10T04:03:20.322Z,99.10
2019-04-10T04:04:19.623Z,99.48
2019-04-10T04:05:20.347Z,99.85
2019-04-10T04:06:19.550Z,99.29
2019-04-10T04:07:19.393Z,99.38
2019-04-10T04:08:19.413Z,99.29
2019-04-10T04:09:19.604Z,99.38
2019-04-10T04:10:20.401Z,99.48
2019-04-10T04:11:19.680Z,99.57
2019-04-10T04:12:20.222Z,99.19
2019-04-10T04:13:19.564Z,99.01
2019-04-10T04:14:19.989Z,99.01
2019-04-10T04:15:19.922Z,99.19
2019-04-10T04:16:19.504Z,99.19
2019-04-10T04:17:20.049Z,99.01
2019-04-10T04:18:19.527Z,99.29
2019-04-10T04:19:19.541Z,99.85
2019-04-10T04:20:19.554Z,99.85
2019-04-10T04:21:19.615Z,99.85
2019-04-10T04:22:19.581Z,99.71
2019-04-10T04:23:19.592Z,99.62
2019-04-10T04:24:21.277Z,99.19
2019-04-10T04:25:19.615Z,99.48
2019-04-10T04:26:19.626Z,99.85
2019-04-10T04:27:20.004Z,99.76
2019-04-10T04:28:19.654Z,99.85
2019-04-10T04:29:20.513Z,99.76
2019-04-10T04:30:20.449Z,99.76
2019-04-10T04:31:19.691Z,99.48
2019-04-10T04:32:19.725Z,99.81
2019-04-10T04:33:19.717Z,99.71
2019-04-10T04:34:20.805Z,99.85
2019-04-10T04:35:19.961Z,99.57
2019-04-10T04:36:20.399Z,99.76
2019-04-10T04:37:20.732Z,99.76
2019-04-10T04:38:19.977Z,99.76
2019-04-10T04:39:25.690Z,99.33
2019-04-10T04:40:19.803Z,99.76
2019-04-10T04:41:19.816Z,99.71
2019-04-10T04:42:19.827Z,99.99
2019-04-10T04:43:21.647Z,99.99
2019-04-10T04:44:20.317Z,99.81
2019-04-10T04:45:19.867Z,99.81
2019-04-10T04:46:20.547Z,99.48
2019-04-10T04:47:19.891Z,99.24
2019-04-10T04:48:19.903Z,99.29
2019-04-10T04:49:20.679Z,99.62
2019-04-10T04:50:20.028Z,99.05
2019-04-10T04:51:19.942Z,99.52
2019-04-10T04:52:20.425Z,99.43
2019-04-10T04:53:19.967Z,99.57
2019-04-10T04:54:19.979Z,99.43
2019-04-10T04:55:19.992Z,99.24
2019-04-10T04:56:20.016Z,99.33
2019-04-10T04:57:20.487Z,99.43
2019-04-10T04:58:20.295Z,99.33
2019-04-10T04:59:20.537Z,99.15
2019-04-10T05:00:20.056Z,99.05
2019-04-10T05:01:21.080Z,98.68
2019-04-10T05:02:20.081Z,98.58
2019-04-10T05:03:20.797Z,98.77
2019-04-10T05:04:20.107Z,98.86
2019-04-10T05:05:20.122Z,98.96
2019-04-10T05:06:20.197Z,98.49
2019-04-10T05:07:20.359Z,98.11
2019-04-10T05:08:20.167Z,98.58
2019-04-10T05:09:30.053Z,98.30
2019-04-10T05:10:20.873Z,98.01
2019-04-10T05:11:20.445Z,98.30
2019-04-10T05:12:20.336Z,97.92
2019-04-10T05:13:20.220Z,97.92
2019-04-10T05:14:20.236Z,97.25
2019-04-10T05:15:20.585Z,97.54
2019-04-10T05:16:20.662Z,97.44
2019-04-10T05:17:20.277Z,97.73
2019-04-10T05:18:21.133Z,97.44
2019-04-10T05:19:21.077Z,96.88
2019-04-10T05:20:20.364Z,96.69
2019-04-10T05:21:21.236Z,96.31
2019-04-10T05:22:20.376Z,96.21
2019-04-10T05:23:20.373Z,96.02
2019-04-10T05:24:20.437Z,95.64
2019-04-10T05:25:21.057Z,95.93
2019-04-10T05:26:20.803Z,95.88
2019-04-10T05:27:20.426Z,95.88
2019-04-10T05:28:20.519Z,96.07
2019-04-10T05:29:21.549Z,95.41
2019-04-10T05:30:20.689Z,95.41
2019-04-10T05:31:21.390Z,94.93
2019-04-10T05:32:21.336Z,94.93
2019-04-10T05:33:20.611Z,94.84
2019-04-10T05:34:20.499Z,94.93
2019-04-10T05:35:20.517Z,94.93
2019-04-10T05:36:21.498Z,94.65
2019-04-10T05:37:21.269Z,94.37
2019-04-10T05:38:20.813Z,94.46
2019-04-10T05:39:20.570Z,94.56
2019-04-10T05:40:20.707Z,94.37
2019-04-10T05:41:21.848Z,94.27
2019-04-10T05:42:20.677Z,94.46
2019-04-10T05:43:20.623Z,93.89
2019-04-10T05:44:20.636Z,93.89
2019-04-10T05:45:21.233Z,94.08
2019-04-10T05:46:21.463Z,93.13
2019-04-10T05:47:21.425Z,92.76
2019-04-10T05:48:22.452Z,92.76
2019-04-10T05:49:20.768Z,92.57
2019-04-10T05:50:21.558Z,92.76
2019-04-10T05:51:21.256Z,92.19
2019-04-10T05:52:20.749Z,92.57
2019-04-10T05:53:20.763Z,92.47
2019-04-10T05:54:20.776Z,92.61
2019-04-10T05:55:20.790Z,92.33
2019-04-10T05:56:20.809Z,91.85
2019-04-10T05:57:20.817Z,91.95
2019-04-10T05:58:21.634Z,91.47
2019-04-10T05:59:21.730Z,91.47
2019-04-10T06:00:20.910Z,92.04
2019-04-10T06:01:30.434Z,91.85
2019-04-10T06:02:20.890Z,92.04
2019-04-10T06:03:20.908Z,91.66
2019-04-10T06:04:21.093Z,91.57
2019-04-10T06:05:20.950Z,91.19
2019-04-10T06:06:22.119Z,91.19
2019-04-10T06:07:21.147Z,91.09
2019-04-10T06:08:21.588Z,90.53
2019-04-10T06:09:20.993Z,90.57
2019-04-10T06:10:21.666Z,89.91
2019-04-10T06:11:21.027Z,89.62
2019-04-10T06:12:22.237Z,88.87
2019-04-10T06:13:21.052Z,89.15
2019-04-10T06:14:22.069Z,88.39
2019-04-10T06:15:21.179Z,88.29
2019-04-10T06:16:21.098Z,88.39
2019-04-10T06:17:21.114Z,88.20
2019-04-10T06:18:21.129Z,88.58
2019-04-10T06:19:21.930Z,88.58
2019-04-10T06:20:21.164Z,88.39
2019-04-10T06:21:21.173Z,87.73
2019-04-10T06:22:21.189Z,87.82
2019-04-10T06:23:21.279Z,87.25
2019-04-10T06:24:22.322Z,86.87
2019-04-10T06:25:22.196Z,86.40
2019-04-10T06:26:21.848Z,86.21
2019-04-10T06:27:21.267Z,86.07
2019-04-10T06:28:21.319Z,86.07
2019-04-10T06:29:21.298Z,86.54
2019-04-10T06:30:21.314Z,86.35
2019-04-10T06:31:21.328Z,86.54
2019-04-10T06:32:21.401Z,85.97
2019-04-10T06:33:22.149Z,86.07
2019-04-10T06:34:22.584Z,86.07
2019-04-10T06:35:22.001Z,85.97
2019-04-10T06:36:21.543Z,85.11
2019-04-10T06:37:21.969Z,85.21
2019-04-10T06:38:21.436Z,85.02
2019-04-10T06:39:21.506Z,84.74
2019-04-10T06:40:24.248Z,84.64
2019-04-10T06:41:22.197Z,84.64
2019-04-10T06:42:22.470Z,84.55
2019-04-10T06:43:22.560Z,84.92
2019-04-10T06:44:21.816Z,84.64
2019-04-10T06:45:21.869Z,83.88
2019-04-10T06:46:22.237Z,84.01
2019-04-10T06:47:22.306Z,83.92
2019-04-10T06:48:21.595Z,83.36
2019-04-10T06:49:22.729Z,82.88
2019-04-10T06:50:21.628Z,82.69
2019-04-10T06:51:21.749Z,82.69
2019-04-10T06:52:23.549Z,82.03
2019-04-10T06:53:22.656Z,81.17
2019-04-10T06:54:22.737Z,80.93
2019-04-10T06:55:21.754Z,80.55
2019-04-10T06:56:21.868Z,80.35
2019-04-10T06:57:22.841Z,79.60
2019-04-10T06:58:21.753Z,79.25
2019-04-10T06:59:21.787Z,79.06
2019-04-10T07:00:22.896Z,78.11
2019-04-10T07:01:23.515Z,77.07
2019-04-10T07:02:27.394Z,76.21
2019-04-10T07:03:21.835Z,76.78
2019-04-10T07:04:24.446Z,76.78
2019-04-10T07:05:21.958Z,76.50
2019-04-10T07:06:23.990Z,76.31
2019-04-10T07:07:25.272Z,75.93
2019-04-10T07:08:23.923Z,75.64
2019-04-10T07:09:24.793Z,75.68
2019-04-10T07:10:28.111Z,76.25
2019-04-10T07:11:24.126Z,75.96
2019-04-10T07:12:24.030Z,75.87
2019-04-10T07:13:22.003Z,75.68
2019-04-10T07:14:22.558Z,75.68
2019-04-10T07:15:23.886Z,76.06
2019-04-10T07:16:22.153Z,75.68
2019-04-10T07:17:22.091Z,74.26
2019-04-10T07:18:22.092Z,73.21
2019-04-10T07:19:22.107Z,73.30
2019-04-10T07:20:22.432Z,73.30
2019-04-10T07:21:22.236Z,73.11
2019-04-10T07:22:22.904Z,73.15
2019-04-10T07:23:25.902Z,73.15
2019-04-10T07:24:22.915Z,71.82
2019-04-10T07:25:22.265Z,71.25
2019-04-10T07:26:33.373Z,71.15
2019-04-10T07:27:22.281Z,70.39
2019-04-10T07:28:22.280Z,69.92
2019-04-10T07:29:26.680Z,69.92
2019-04-10T07:30:26.071Z,70.58
2019-04-10T07:31:23.393Z,71.25
2019-04-10T07:32:24.178Z,71.06
2019-04-10T07:33:22.481Z,71.00
2019-04-10T07:34:25.556Z,70.52
2019-04-10T07:35:23.590Z,69.85
2019-04-10T07:36:22.438Z,69.85
2019-04-10T07:37:24.112Z,69.10
2019-04-10T07:38:22.754Z,68.81
2019-04-10T07:39:26.876Z,69.00
2019-04-10T07:40:22.808Z,69.38
2019-04-10T07:41:25.651Z,69.19
2019-04-10T07:42:28.615Z,69.48
2019-04-10T07:43:26.153Z,69.29
2019-04-10T07:44:22.558Z,69.48
2019-04-10T07:45:26.423Z,69.76
2019-04-10T07:46:22.597Z,69.76
2019-04-10T07:47:23.674Z,69.48
2019-04-10T07:48:22.632Z,69.73
2019-04-10T07:49:27.436Z,70.10
2019-04-10T07:50:22.682Z,70.30
2019-04-10T07:51:22.687Z,70.49
2019-04-10T07:52:23.951Z,71.25
2019-04-10T07:53:22.724Z,71.25
2019-04-10T07:54:22.743Z,71.06
2019-04-10T07:55:23.857Z,71.06
2019-04-10T07:56:22.783Z,70.58
2019-04-10T07:57:22.799Z,70.49
2019-04-10T07:58:23.535Z,70.39
2019-04-10T07:59:22.834Z,70.77
2019-04-10T08:00:22.855Z,70.68
2019-04-10T08:01:22.872Z,70.87
2019-04-10T08:02:23.299Z,71.25
2019-04-10T08:03:22.940Z,70.77
2019-04-10T08:04:22.934Z,70.49
2019-04-10T08:05:22.996Z,70.20
2019-04-10T08:06:23.495Z,69.73
2019-04-10T08:07:29.412Z,69.82
2019-04-10T08:08:23.608Z,69.35
2019-04-10T08:09:23.020Z,69.54
2019-04-10T08:10:24.150Z,69.73
2019-04-10T08:11:23.941Z,70.01
2019-04-10T08:12:23.284Z,70.43
2019-04-10T08:13:23.097Z,69.67
2019-04-10T08:14:23.812Z,69.00
2019-04-10T08:15:23.150Z,69.00
2019-04-10T08:16:23.219Z,69.76
2019-04-10T08:17:23.916Z,69.00
2019-04-10T08:18:23.230Z,68.43
2019-04-10T08:19:25.283Z,68.15
2019-04-10T08:20:24.014Z,67.57
2019-04-10T08:21:23.922Z,66.72
2019-04-10T08:22:23.265Z,66.81
2019-04-10T08:23:23.865Z,66.72
2019-04-10T08:24:23.752Z,66.62
2019-04-10T08:25:23.323Z,65.86
2019-04-10T08:26:23.339Z,65.77
2019-04-10T08:27:23.506Z,66.91
2019-04-10T08:28:24.090Z,66.43
2019-04-10T08:29:23.887Z,65.86
2019-04-10T08:30:23.758Z,65.67
2019-04-10T08:31:23.870Z,65.95
2019-04-10T08:32:23.673Z,65.32
2019-04-10T08:33:23.478Z,65.61
2019-04-10T08:34:23.726Z,65.32
2019-04-10T08:35:23.510Z,64.84
2019-04-10T08:36:23.565Z,65.13
2019-04-10T08:37:24.159Z,65.89
2019-04-10T08:38:23.979Z,65.32
2019-04-10T08:39:35.216Z,64.75
2019-04-10T08:40:23.620Z,64.28
2019-04-10T08:41:23.628Z,64.75
2019-04-10T08:42:24.450Z,64.65
2019-04-10T08:43:24.462Z,64.40
2019-04-10T08:44:24.334Z,64.59
2019-04-10T08:45:23.706Z,64.59
2019-04-10T08:46:23.985Z,63.35
2019-04-10T08:47:24.812Z,62.37
2019-04-10T08:48:24.092Z,62.12
2019-04-10T08:49:24.774Z,62.40
2019-04-10T08:50:23.824Z,62.30
2019-04-10T08:51:23.825Z,62.88
2019-04-10T08:52:24.167Z,62.78
2019-04-10T08:53:24.235Z,62.97
2019-04-10T08:54:23.909Z,63.45
2019-04-10T08:55:24.038Z,64.02
2019-04-10T08:56:24.636Z,64.78
2019-04-10T08:57:23.941Z,64.40
2019-04-10T08:58:24.959Z,63.07
2019-04-10T08:59:23.978Z,63.35
2019-04-10T09:00:24.714Z,63.20
2019-04-10T09:01:25.036Z,63.10
2019-04-10T09:02:24.111Z,63.10
2019-04-10T09:03:24.628Z,62.43
2019-04-10T09:04:24.148Z,62.43
2019-04-10T09:05:24.152Z,61.96
2019-04-10T09:06:25.164Z,61.57
2019-04-10T09:07:24.220Z,61.48
2019-04-10T09:08:24.588Z,61.29
2019-04-10T09:09:24.181Z,61.10
2019-04-10T09:10:24.201Z,60.62
2019-04-10T09:11:26.893Z,60.24
2019-04-10T09:12:24.240Z,59.95
2019-04-10T09:13:24.351Z,60.33
2019-04-10T09:14:25.207Z,60.05
2019-04-10T09:15:24.306Z,60.91
2019-04-10T09:16:24.705Z,61.48
2019-04-10T09:17:24.993Z,60.72
2019-04-10T09:18:25.191Z,60.52
2019-04-10T09:19:25.601Z,60.33
2019-04-10T09:20:24.786Z,60.62
2019-04-10T09:21:24.419Z,60.81
2019-04-10T09:22:24.619Z,60.43
2019-04-10T09:23:36.227Z,59.95
2019-04-10T09:24:24.481Z,59.76
2019-04-10T09:25:24.914Z,59.67
2019-04-10T09:26:24.579Z,59.48
2019-04-10T09:27:24.778Z,60.14
2019-04-10T09:28:24.557Z,60.33
2019-04-10T09:29:25.491Z,59.92
2019-04-10T09:30:24.763Z,60.30
2019-04-10T09:31:24.619Z,60.30
2019-04-10T09:32:24.636Z,60.21
2019-04-10T09:33:27.757Z,60.88
2019-04-10T09:34:25.496Z,60.97
2019-04-10T09:35:24.693Z,60.59
2019-04-10T09:36:24.947Z,60.59
2019-04-10T09:37:24.732Z,60.88
2019-04-10T09:38:24.751Z,61.07
2019-04-10T09:39:25.428Z,60.59
2019-04-10T09:40:24.789Z,60.49
2019-04-10T09:41:25.815Z,60.49
2019-04-10T09:42:25.584Z,60.88
2019-04-10T09:43:25.306Z,61.25
2019-04-10T09:44:25.597Z,61.32
2019-04-10T09:45:25.164Z,61.54
2019-04-10T09:46:24.904Z,61.64
2019-04-10T09:47:24.946Z,61.93
2019-04-10T09:48:24.939Z,62.49
2019-04-10T09:49:33.897Z,62.12
2019-04-10T09:50:26.124Z,63.26
2019-04-10T09:51:25.635Z,62.37
2019-04-10T09:52:25.794Z,61.80
2019-04-10T09:53:25.031Z,61.42
2019-04-10T09:54:25.885Z,60.66
2019-04-10T09:55:25.069Z,60.75
2019-04-10T09:56:25.513Z,60.75
2019-04-10T09:57:25.103Z,60.94
2019-04-10T09:58:26.178Z,60.85
2019-04-10T09:59:34.892Z,61.32
2019-04-10T10:00:25.158Z,61.42
2019-04-10T10:01:25.992Z,61.22
2019-04-10T10:02:25.249Z,60.66
2019-04-10T10:03:26.211Z,60.37
2019-04-10T10:04:25.748Z,61.22
2019-04-10T10:05:25.490Z,60.85
2019-04-10T10:06:30.744Z,60.85
2019-04-10T10:07:26.251Z,61.42
2019-04-10T10:08:25.302Z,61.51
2019-04-10T10:09:26.080Z,61.42
2019-04-10T10:10:25.337Z,61.22
2019-04-10T10:11:27.122Z,61.32
2019-04-10T10:12:25.669Z,62.37
2019-04-10T10:13:25.586Z,61.80
2019-04-10T10:14:26.457Z,61.61
2019-04-10T10:15:25.429Z,61.90
2019-04-10T10:16:25.552Z,61.90
2019-04-10T10:17:25.513Z,61.22
2019-04-10T10:18:25.607Z,61.32
2019-04-10T10:19:25.965Z,60.40
2019-04-10T10:20:25.950Z,60.69
2019-04-10T10:21:26.132Z,60.40
2019-04-10T10:22:25.553Z,60.30
2019-04-10T10:23:25.642Z,60.30
2019-04-10T10:24:26.683Z,59.54
2019-04-10T10:25:25.616Z,58.69
2019-04-10T10:26:26.069Z,58.40
2019-04-10T10:27:26.716Z,58.59
2019-04-10T10:28:25.664Z,59.06
2019-04-10T10:29:25.969Z,59.38
2019-04-10T10:30:25.700Z,59.57
2019-04-10T10:31:26.340Z,59.48
2019-04-10T10:32:26.663Z,60.05
2019-04-10T10:33:25.819Z,59.86
2019-04-10T10:34:26.124Z,60.14
2019-04-10T10:35:25.800Z,59.28
2019-04-10T10:36:34.728Z,58.43
2019-04-10T10:37:26.447Z,57.70
2019-04-10T10:38:25.855Z,56.93
2019-04-10T10:39:26.536Z,56.65
2019-04-10T10:40:25.955Z,56.65
2019-04-10T10:41:26.418Z,56.26
2019-04-10T10:42:26.020Z,55.60
2019-04-10T10:43:26.599Z,55.41
2019-04-10T10:44:26.027Z,55.31
2019-04-10T10:45:26.917Z,54.45
2019-04-10T10:46:27.200Z,54.17
2019-04-10T10:47:26.253Z,55.24
2019-04-10T10:48:26.058Z,55.53
2019-04-10T10:49:26.499Z,55.34
2019-04-10T10:50:26.097Z,54.79
2019-04-10T10:51:26.790Z,54.13
2019-04-10T10:52:26.143Z,53.55
2019-04-10T10:53:26.233Z,53.84
2019-04-10T10:54:26.852Z,53.29
2019-04-10T10:55:26.415Z,53.10
2019-04-10T10:56:26.509Z,52.05
2019-04-10T10:57:26.979Z,52.72
2019-04-10T10:58:26.275Z,53.10
2019-04-10T10:59:27.246Z,52.94
2019-04-10T11:00:27.188Z,53.22
2019-04-10T11:01:27.466Z,52.20
2019-04-10T11:02:27.597Z,51.81
2019-04-10T11:03:26.508Z,51.84
2019-04-10T11:04:27.372Z,50.31
2019-04-10T11:05:27.280Z,50.05
2019-04-10T11:06:26.848Z,50.46
2019-04-10T11:07:26.997Z,49.98
2019-04-10T11:08:26.903Z,49.50
2019-04-10T11:09:26.542Z,49.02
2019-04-10T11:10:27.533Z,48.38
2019-04-10T11:11:26.594Z,47.97
2019-04-10T11:12:26.623Z,48.25
2019-04-10T11:13:26.650Z,47.87
2019-04-10T11:14:27.597Z,48.44
2019-04-10T11:15:27.764Z,48.44
2019-04-10T11:16:27.164Z,48.07
2019-04-10T11:17:28.170Z,47.87
2019-04-10T11:18:26.765Z,48.83
2019-04-10T11:19:27.119Z,49.11
2019-04-10T11:20:27.958Z,48.54
2019-04-10T11:21:27.366Z,48.73
2019-04-10T11:22:26.935Z,48.73
2019-04-10T11:23:28.342Z,48.44
2019-04-10T11:24:26.915Z,48.54
2019-04-10T11:25:28.382Z,48.25
2019-04-10T11:26:27.618Z,47.87
2019-04-10T11:27:28.017Z,47.78
2019-04-10T11:28:30.182Z,47.56
2019-04-10T11:29:27.032Z,47.56
2019-04-10T11:30:27.056Z,48.13
2019-04-10T11:31:27.080Z,48.02
2019-04-10T11:32:28.644Z,48.59
2019-04-10T11:33:27.317Z,48.68
2019-04-10T11:34:29.064Z,48.68
2019-04-10T11:35:27.171Z,49.23
2019-04-10T11:36:28.176Z,49.23
2019-04-10T11:37:37.469Z,49.62
2019-04-10T11:38:27.323Z,49.71
2019-04-10T11:39:29.296Z,50.09
2019-04-10T11:40:28.036Z,50.09
2019-04-10T11:41:29.515Z,50.48
2019-04-10T11:42:28.816Z,50.57
2019-04-10T11:43:27.905Z,50.76
2019-04-10T11:44:28.092Z,50.95
2019-04-10T11:45:29.789Z,50.55
2019-04-10T11:46:29.836Z,49.78
2019-04-10T11:47:29.019Z,49.98
2019-04-10T11:48:29.145Z,50.16
2019-04-10T11:49:28.928Z,50.04
2019-04-10T11:50:28.558Z,50.52
2019-04-10T11:51:31.540Z,51.19
2019-04-10T11:52:35.783Z,50.14
2019-04-10T11:53:27.581Z,49.95
2019-04-10T11:54:29.895Z,49.85
2019-04-10T11:55:28.252Z,50.24
2019-04-10T11:56:30.059Z,50.43
2019-04-10T11:57:31.758Z,51.00
2019-04-10T11:58:28.956Z,51.50
2019-04-10T11:59:28.835Z,51.41
2019-04-10T12:00:30.208Z,51.21
2019-04-10T12:01:28.048Z,51.31
2019-04-10T12:02:30.401Z,51.34
2019-04-10T12:03:28.227Z,50.38
2019-04-10T12:04:29.527Z,49.62
2019-04-10T12:05:29.740Z,49.07
2019-04-10T12:06:29.738Z,48.68
2019-04-10T12:07:55.046Z,48.78
2019-04-10T12:10:49.436Z,48.13
2019-04-10T12:11:28.793Z,47.68
2019-04-10T12:12:28.110Z,47.22
2019-04-10T12:13:28.292Z,45.98
2019-04-10T12:14:28.044Z,45.31
2019-04-10T12:15:28.170Z,45.02
2019-04-10T12:16:29.339Z,44.93
2019-04-10T12:17:28.122Z,44.83
2019-04-10T12:18:28.666Z,45.21
2019-04-10T12:19:28.948Z,45.40
2019-04-10T12:20:29.215Z,45.40
2019-04-10T12:21:28.227Z,45.40
2019-04-10T12:22:28.250Z,46.05
2019-04-10T12:23:29.163Z,46.05
2019-04-10T12:24:28.303Z,46.05
2019-04-10T12:25:29.045Z,46.72
2019-04-10T12:26:28.354Z,46.53
2019-04-10T12:27:29.309Z,45.94
2019-04-10T12:28:28.406Z,45.94
2019-04-10T12:29:28.990Z,46.80
2019-04-10T12:30:28.988Z,46.87
2019-04-10T12:31:28.475Z,46.77
2019-04-10T12:32:28.569Z,46.96
2019-04-10T12:33:29.591Z,46.87
2019-04-10T12:34:28.601Z,47.25
2019-04-10T12:35:29.695Z,47.06
2019-04-10T12:36:28.786Z,47.03
2019-04-10T12:37:28.695Z,46.84
2019-04-10T12:38:29.761Z,46.75
2019-04-10T12:39:28.656Z,46.75
2019-04-10T12:40:28.763Z,47.52
2019-04-10T12:41:28.704Z,47.58
2019-04-10T12:42:28.725Z,47.58
2019-04-10T12:43:29.290Z,47.97
2019-04-10T12:44:29.566Z,48.64
2019-04-10T12:45:28.789Z,48.44
2019-04-10T12:46:28.926Z,48.73
2019-04-10T12:47:28.831Z,48.16
2019-04-10T12:48:28.852Z,48.42
2019-04-10T12:49:29.693Z,48.71
2019-04-10T12:50:28.892Z,48.61
2019-04-10T12:51:29.761Z,48.80
2019-04-10T12:52:28.938Z,48.71
2019-04-10T12:53:29.602Z,48.71
2019-04-10T12:54:29.970Z,48.61